Time;durP1;ratioP1;P1;durP2;ratioP2;P2;SDS_P1;SDS_P2;PMS_P1;PMS_P2;Temp;Humidity;BMP_temperature;BMP_pressure;BME280_temperature;BME280_humidity;BME280_pressure;Samples;Min_cycle;Max_cycle;Signal;HPM_P1;HPM_P2
2021/06/22 00:00:35;;;;;;;;;;;;;;;;;;5071456;28;20319;-64
2021/06/22 00:03:02;;;;;;;;;;;;;;;;;;5071756;28;19934;-65
2021/06/22 00:05:30;;;;;;;;;;;;;;;;;;5071675;28;19924;-65
2021/06/22 00:07:57;;;;;;;;;;;;;;;;;;5082786;28;19924;-63
2021/06/22 00:10:24;;;;;;;;;;;;;;;;;;5091497;28;19934;-63
2021/06/22 00:12:51;;;;;;;;;;;;;;;;;;5091775;28;19931;-63
2021/06/22 00:15:18;;;;;;;;;;;;;;;;;;5091651;28;20306;-64
2021/06/22 00:17:45;;;;;;;;;;;;;;;;;;5091629;28;19946;-63
2021/06/22 00:20:11;;;;;;;;;;;;;;;;;;5091644;28;20023;-63
2021/06/22 00:22:38;;;;;;;;;;;;;;;;;;5092131;28;20285;-66
2021/06/22 00:25:05;;;;;;;;;;;;;;;;;;5081289;28;20450;-63
2021/06/22 00:27:32;;;;;;;;;;;;;;;;;;5071411;28;19924;-64
2021/06/22 00:29:59;;;;;;;;;;;;;;;;;;5071138;28;19931;-64
2021/06/22 00:32:26;;;;;;;;;;;;;;;;;;5071436;28;19925;-63
2021/06/22 00:34:53;;;;;;;;;;;;;;;;;;5071646;28;20399;-65
2021/06/22 00:37:20;;;;;;;;;;;;;;;;;;5071166;28;19932;-64
2021/06/22 00:39:47;;;;;;;;;;;;;;;;;;5071551;28;19960;-63
2021/06/22 00:42:14;;;;;;;;;;;;;;;;;;5071278;28;20304;-64
2021/06/22 00:44:41;;;;;;;;;;;;;;;;;;5071365;28;19931;-63
2021/06/22 00:47:08;;;;;;;;;;;;;;;;;;5071394;28;19948;-64
2021/06/22 00:49:35;;;;;;;;;;;;;;;;;;5071250;28;20394;-64
2021/06/22 00:52:02;;;;;;;;;;;;;;;;;;5070976;28;19934;-63
2021/06/22 00:54:29;;;;;;;;;;;;;;;;;;5071342;28;19928;-63
2021/06/22 00:56:56;;;;;;;;;;;;;;;;;;5071249;28;19933;-65
2021/06/22 00:59:22;;;;;;;;;;;;;;;;;;5070688;28;20414;-65
2021/06/22 01:01:50;;;;;;;;;;;;;;;;;;5072825;28;19991;-65
2021/06/22 01:04:17;;;;;;;;;;;;;;;;;;5074811;28;20308;-64
2021/06/22 01:06:44;;;;;;;;;;;;;;;;;;5075771;28;19924;-64
2021/06/22 01:09:11;;;;;;;;;;;;;;;;;;5094969;28;19924;-64
2021/06/22 01:11:38;;;;;;;;;;;;;;;;;;5095209;28;20298;-65
2021/06/22 01:14:05;;;;;;;;;;;;;;;;;;5094744;28;19928;-65
2021/06/22 01:16:32;;;;;;;;;;;;;;;;;;5094763;28;19935;-64
2021/06/22 01:18:59;;;;;;;;;;;;;;;;;;5094789;28;19932;-65
2021/06/22 01:21:26;;;;;;;;;;;;;;;;;;5094354;28;19967;-66
2021/06/22 01:23:53;;;;;;;;;;;;;;;;;;5094447;28;19924;-64
2021/06/22 01:26:20;;;;;;;;;;;;;;;;;;5074221;28;19946;-64
2021/06/22 01:28:47;;;;;;;;;;;;;;;;;;5074444;28;20376;-64
2021/06/22 01:31:14;;;;;;;;;;;;;;;;;;5074030;28;20313;-65
2021/06/22 01:33:41;;;;;;;;;;;;;;;;;;5074008;28;19936;-65
2021/06/22 01:36:08;;;;;;;;;;;;;;;;;;5074302;28;19931;-65
2021/06/22 01:38:35;;;;;;;;;;;;;;;;;;5074276;28;19971;-66
2021/06/22 01:41:02;;;;;;;;;;;;;;;;;;5073854;28;20308;-64
2021/06/22 01:43:29;;;;;;;;;;;;;;;;;;5074160;28;19924;-65
2021/06/22 01:45:55;;;;;;;;;;;;;;;;;;5073894;28;19925;-64
2021/06/22 01:48:22;;;;;;;;;;;;;;;;;;5073784;28;20296;-64
2021/06/22 01:50:49;;;;;;;;;;;;;;;;;;5073622;28;19924;-65
2021/06/22 01:53:16;;;;;;;;;;;;;;;;;;5073998;28;19936;-64
2021/06/22 01:55:43;;;;;;;;;;;;;;;;;;5073817;28;20308;-64
2021/06/22 01:58:10;;;;;;;;;;;;;;;;;;5073983;28;19939;-65
2021/06/22 02:00:37;;;;;;;;;;;;;;;;;;5073183;28;20015;-65
2021/06/22 02:03:04;;;;;;;;;;;;;;;;;;5073741;28;19924;-65
2021/06/22 02:05:31;;;;;;;;;;;;;;;;;;5073553;28;20323;-65
2021/06/22 02:07:58;;;;;;;;;;;;;;;;;;5085168;28;19924;-64
2021/06/22 02:10:25;;;;;;;;;;;;;;;;;;5093713;28;19924;-64
2021/06/22 02:12:52;;;;;;;;;;;;;;;;;;5093093;28;19928;-62
2021/06/22 02:15:19;;;;;;;;;;;;;;;;;;5093566;28;19924;-64
2021/06/22 02:17:46;;;;;;;;;;;;;;;;;;5093652;28;19928;-65
2021/06/22 02:20:13;;;;;;;;;;;;;;;;;;5093759;28;19924;-65
2021/06/22 02:22:40;;;;;;;;;;;;;;;;;;5093613;28;20546;-63
2021/06/22 02:25:07;;;;;;;;;;;;;;;;;;5082932;28;19924;-65
2021/06/22 02:27:33;;;;;;;;;;;;;;;;;;5073120;28;19940;-64
2021/06/22 02:30:00;;;;;;;;;;;;;;;;;;5072891;28;19924;-65
2021/06/22 02:32:27;;;;;;;;;;;;;;;;;;5072897;28;20379;-66
2021/06/22 02:34:54;;;;;;;;;;;;;;;;;;5073298;28;19931;-66
2021/06/22 02:37:21;;;;;;;;;;;;;;;;;;5073093;28;19932;-64
2021/06/22 02:39:48;;;;;;;;;;;;;;;;;;5073038;28;20320;-64
2021/06/22 02:42:15;;;;;;;;;;;;;;;;;;5072884;28;19932;-65
2021/06/22 02:44:42;;;;;;;;;;;;;;;;;;5073158;28;19929;-65
2021/06/22 02:47:09;;;;;;;;;;;;;;;;;;5072656;28;20388;-65
2021/06/22 02:49:36;;;;;;;;;;;;;;;;;;5072484;28;19931;-64
2021/06/22 02:52:05;;;;;;;;;;;;;;;;;;5072761;28;19924;-66
2021/06/22 02:54:33;;;;;;;;;;;;;;;;;;5072583;28;20015;-65
2021/06/22 02:57:00;;;;;;;;;;;;;;;;;;5072957;28;19924;-65
2021/06/22 02:59:27;;;;;;;;;;;;;;;;;;5072648;28;19925;-64
2021/06/22 03:01:54;;;;;;;;;;;;;;;;;;5072516;28;19924;-65
2021/06/22 03:04:21;;;;;;;;;;;;;;;;;;5072484;28;19924;-64
2021/06/22 03:06:47;;;;;;;;;;;;;;;;;;5074063;28;19925;-65
2021/06/22 03:09:14;;;;;;;;;;;;;;;;;;5092455;28;20034;-65
2021/06/22 03:11:41;;;;;;;;;;;;;;;;;;5092181;28;19934;-66
2021/06/22 03:14:08;;;;;;;;;;;;;;;;;;5092480;28;19931;-65
2021/06/22 03:16:35;;;;;;;;;;;;;;;;;;5092988;28;19931;-64
2021/06/22 03:19:02;;;;;;;;;;;;;;;;;;5092735;28;20320;-63
2021/06/22 03:21:29;;;;;;;;;;;;;;;;;;5092241;28;19924;-65
2021/06/22 03:23:56;;;;;;;;;;;;;;;;;;5123806;22;19931;-70
2021/06/22 03:26:23;;;;;;;;;;;;;;;;;;5091281;28;19924;-70
2021/06/22 03:28:50;;;;;;;;;;;;;;;;;;5092551;28;19924;-70
2021/06/22 03:31:17;;;;;;;;;;;;;;;;;;5092338;28;20391;-70
2021/06/22 03:33:44;;;;;;;;;;;;;;;;;;5092955;28;19924;-70
2021/06/22 03:36:11;;;;;;;;;;;;;;;;;;5097108;28;20302;-71
2021/06/22 03:38:37;;;;;;;;;;;;;;;;;;5092846;28;19931;-71
2021/06/22 03:41:05;;;;;;;;;;;;;;;;;;5092009;28;19931;-71
2021/06/22 03:43:32;;;;;;;;;;;;;;;;;;5092873;28;19931;-71
2021/06/22 03:45:59;;;;;;;;;;;;;;;;;;5091938;28;20232;-71
2021/06/22 03:48:26;;;;;;;;;;;;;;;;;;5091975;28;19924;-71
2021/06/22 03:50:53;;;;;;;;;;;;;;;;;;5091717;28;19924;-71
2021/06/22 03:53:20;;;;;;;;;;;;;;;;;;5091849;28;20296;-71
2021/06/22 03:55:47;;;;;;;;;;;;;;;;;;5092101;28;19931;-71
2021/06/22 03:58:14;;;;;;;;;;;;;;;;;;5092062;28;19931;-71
2021/06/22 04:00:41;;;;;;;;;;;;;;;;;;5091683;28;20035;-70
2021/06/22 04:03:13;;;;;;;;;;;;;;;;;;5091809;28;19943;-71
2021/06/22 04:05:40;;;;;;;;;;;;;;;;;;5092186;28;20337;-70
2021/06/22 04:08:07;;;;;;;;;;;;;;;;;;5092273;28;19924;-71
2021/06/22 04:10:34;;;;;;;;;;;;;;;;;;5091997;28;19925;-70
2021/06/22 04:13:01;;;;;;;;;;;;;;;;;;5092576;28;19946;-71
2021/06/22 04:15:28;;;;;;;;;;;;;;;;;;5095565;28;20346;-71
2021/06/22 04:17:55;;;;;;;;;;;;;;;;;;5098126;28;19931;-71
2021/06/22 04:20:21;;;;;;;;;;;;;;;;;;5098214;28;20018;-71
2021/06/22 04:22:48;;;;;;;;;;;;;;;;;;5094075;28;19946;-71
2021/06/22 04:25:16;;;;;;;;;;;;;;;;;;5091870;28;19930;-71
2021/06/22 04:27:43;;;;;;;;;;;;;;;;;;5092455;28;19928;-71
2021/06/22 04:30:10;;;;;;;;;;;;;;;;;;5092130;28;20277;-71
2021/06/22 04:32:37;;;;;;;;;;;;;;;;;;5092290;28;19924;-70
2021/06/22 04:35:04;;;;;;;;;;;;;;;;;;5092493;28;19928;-71
2021/06/22 04:37:31;;;;;;;;;;;;;;;;;;5095176;28;19924;-71
2021/06/22 04:39:58;;;;;;;;;;;;;;;;;;5096499;28;19924;-71
2021/06/22 04:42:24;;;;;;;;;;;;;;;;;;5096375;28;19924;-70
2021/06/22 04:44:52;;;;;;;;;;;;;;;;;;5096152;28;19924;-70
2021/06/22 04:47:19;;;;;;;;;;;;;;;;;;5095849;28;19931;-70
2021/06/22 04:49:46;;;;;;;;;;;;;;;;;;5095654;28;20193;-70
2021/06/22 04:52:12;;;;;;;;;;;;;;;;;;5095975;28;19934;-70
2021/06/22 04:54:40;;;;;;;;;;;;;;;;;;5096227;28;19924;-71
2021/06/22 04:57:07;;;;;;;;;;;;;;;;;;5095830;28;19964;-70
2021/06/22 04:59:34;;;;;;;;;;;;;;;;;;5095459;28;20429;-70
2021/06/22 05:02:01;;;;;;;;;;;;;;;;;;5097539;28;19931;-71
2021/06/22 05:04:28;;;;;;;;;;;;;;;;;;5101828;28;19971;-71
2021/06/22 05:06:55;;;;;;;;;;;;;;;;;;5095850;28;20017;-70
2021/06/22 05:09:22;;;;;;;;;;;;;;;;;;5095136;28;19928;-70
2021/06/22 05:11:49;;;;;;;;;;;;;;;;;;5095130;28;20027;-70
2021/06/22 05:14:16;;;;;;;;;;;;;;;;;;5094859;28;19934;-70
2021/06/22 05:16:42;;;;;;;;;;;;;;;;;;5094886;28;20010;-70
2021/06/22 05:19:09;;;;;;;;;;;;;;;;;;5095312;28;19930;-71
2021/06/22 05:21:36;;;;;;;;;;;;;;;;;;5095104;28;19924;-70
2021/06/22 05:24:03;;;;;;;;;;;;;;;;;;5094649;28;19930;-70
2021/06/22 05:26:30;;;;;;;;;;;;;;;;;;5094788;28;20022;-71
2021/06/22 05:28:57;;;;;;;;;;;;;;;;;;5094686;28;19924;-71
2021/06/22 05:31:24;;;;;;;;;;;;;;;;;;5094058;28;20405;-71
2021/06/22 05:33:51;;;;;;;;;;;;;;;;;;5095124;28;20314;-71
2021/06/22 05:36:18;;;;;;;;;;;;;;;;;;5094738;28;19924;-71
2021/06/22 05:38:45;;;;;;;;;;;;;;;;;;5094625;28;20334;-70
2021/06/22 05:41:12;;;;;;;;;;;;;;;;;;5093995;28;20380;-70
2021/06/22 05:43:42;;;;;;;;;;;;;;;;;;5094636;28;20304;-71
2021/06/22 05:46:09;;;;;;;;;;;;;;;;;;5094379;28;20303;-71
2021/06/22 05:48:36;;;;;;;;;;;;;;;;;;5101019;28;19924;-72
2021/06/22 05:51:03;;;;;;;;;;;;;;;;;;5105233;28;19928;-72
2021/06/22 05:53:30;;;;;;;;;;;;;;;;;;5094538;28;19977;-71
2021/06/22 05:55:57;;;;;;;;;;;;;;;;;;5094002;28;19924;-71
2021/06/22 05:58:24;;;;;;;;;;;;;;;;;;5094147;28;20478;-71
2021/06/22 06:00:51;;;;;;;;;;;;;;;;;;5093878;28;19924;-71
2021/06/22 06:03:18;;;;;;;;;;;;;;;;;;5094170;28;19924;-70
2021/06/22 06:05:45;;;;;;;;;;;;;;;;;;5094359;28;19924;-70
2021/06/22 06:08:12;;;;;;;;;;;;;;;;;;5093645;28;19924;-70
2021/06/22 06:10:40;;;;;;;;;;;;;;;;;;5093592;28;20311;-70
2021/06/22 06:13:07;;;;;;;;;;;;;;;;;;5093956;28;20383;-70
2021/06/22 06:15:34;;;;;;;;;;;;;;;;;;5094029;28;20048;-72
2021/06/22 06:18:01;;;;;;;;;;;;;;;;;;5093739;28;20387;-70
2021/06/22 06:20:28;;;;;;;;;;;;;;;;;;5093420;28;19946;-70
2021/06/22 06:22:56;;;;;;;;;;;;;;;;;;5093514;28;19930;-71
2021/06/22 06:25:23;;;;;;;;;;;;;;;;;;5093171;28;19928;-69
2021/06/22 06:27:55;;;;;;;;;;;;;;;;;;5093572;28;19931;-69
2021/06/22 06:30:23;;;;;;;;;;;;;;;;;;5094814;28;19924;-69
2021/06/22 06:32:50;;;;;;;;;;;;;;;;;;5096545;28;19931;-70
2021/06/22 06:35:17;;;;;;;;;;;;;;;;;;5099442;28;19931;-70
2021/06/22 06:37:44;;;;;;;;;;;;;;;;;;5101447;28;20003;-70
2021/06/22 06:40:11;;;;;;;;;;;;;;;;;;5093648;28;19924;-70
2021/06/22 06:42:38;;;;;;;;;;;;;;;;;;5093440;28;19935;-70
2021/06/22 06:45:05;;;;;;;;;;;;;;;;;;5093276;28;20015;-70
2021/06/22 06:47:32;;;;;;;;;;;;;;;;;;5093340;28;19924;-70
2021/06/22 06:49:59;;;;;;;;;;;;;;;;;;5092831;28;19924;-70
2021/06/22 06:52:26;;;;;;;;;;;;;;;;;;5093003;28;19924;-70
2021/06/22 06:54:53;;;;;;;;;;;;;;;;;;5093148;28;19928;-70
2021/06/22 06:57:20;;;;;;;;;;;;;;;;;;5092852;28;19924;-70
2021/06/22 06:59:47;;;;;;;;;;;;;;;;;;5092733;28;20014;-70
2021/06/22 07:02:14;;;;;;;;;;;;;;;;;;5093172;28;20296;-70
2021/06/22 07:04:41;;;;;;;;;;;;;;;;;;5092085;28;21424;-70
2021/06/22 07:07:08;;;;;;;;;;;;;;;;;;5092565;28;19935;-70
2021/06/22 07:09:35;;;;;;;;;;;;;;;;;;5093004;28;19932;-70
2021/06/22 07:12:02;;;;;;;;;;;;;;;;;;5093083;28;19924;-70
2021/06/22 07:14:29;;;;;;;;;;;;;;;;;;5093123;28;19924;-70
2021/06/22 07:16:56;;;;;;;;;;;;;;;;;;5093088;28;20280;-70
2021/06/22 07:19:23;;;;;;;;;;;;;;;;;;5093008;28;19971;-70
2021/06/22 07:21:50;;;;;;;;;;;;;;;;;;5096867;28;20187;-72
2021/06/22 07:24:17;;;;;;;;;;;;;;;;;;5095984;28;19924;-70
2021/06/22 07:26:44;;;;;;;;;;;;;;;;;;5093176;28;19924;-70
2021/06/22 07:29:11;;;;;;;;;;;;;;;;;;5092413;28;19924;-71
2021/06/22 07:31:38;;;;;;;;;;;;;;;;;;5092606;28;19931;-70
2021/06/22 07:34:05;;;;;;;;;;;;;;;;;;5092314;28;19946;-70
2021/06/22 07:36:32;;;;;;;;;;;;;;;;;;5092784;28;20022;-69
2021/06/22 07:38:59;;;;;;;;;;;;;;;;;;5092500;28;20399;-69
2021/06/22 07:41:26;;;;;;;;;;;;;;;;;;5092446;28;19924;-69
2021/06/22 07:43:53;;;;;;;;;;;;;;;;;;5092719;28;19928;-70
2021/06/22 07:46:20;;;;;;;;;;;;;;;;;;5092017;28;20038;-70
2021/06/22 07:48:47;;;;;;;;;;;;;;;;;;5092356;28;20295;-70
2021/06/22 07:51:14;;;;;;;;;;;;;;;;;;5091920;28;20018;-70
2021/06/22 07:53:41;;;;;;;;;;;;;;;;;;5092361;28;19934;-71
2021/06/22 07:56:08;;;;;;;;;;;;;;;;;;5092056;28;19928;-70
2021/06/22 07:58:35;;;;;;;;;;;;;;;;;;5092004;28;19931;-71
2021/06/22 08:01:02;;;;;;;;;;;;;;;;;;5091511;28;19930;-71
2021/06/22 08:03:29;;;;;;;;;;;;;;;;;;5092451;28;19946;-71
2021/06/22 08:05:56;;;;;;;;;;;;;;;;;;5095201;28;19956;-70
2021/06/22 08:08:23;;;;;;;;;;;;;;;;;;5098087;28;19931;-70
2021/06/22 08:10:50;;;;;;;;;;;;;;;;;;5090893;28;19931;-70
2021/06/22 08:13:17;;;;;;;;;;;;;;;;;;5091538;28;19985;-70
2021/06/22 08:15:44;;;;;;;;;;;;;;;;;;5091432;28;19935;-70
2021/06/22 08:18:11;;;;;;;;;;;;;;;;;;5091565;28;19924;-69
2021/06/22 08:20:38;;;;;;;;;;;;;;;;;;5091306;28;19932;-70
2021/06/22 08:23:05;;;;;;;;;;;;;;;;;;5091605;28;20303;-69
2021/06/22 08:25:32;;;;;;;;;;;;;;;;;;5091063;28;19930;-69
2021/06/22 08:27:59;;;;;;;;;;;;;;;;;;5091452;28;19924;-69
2021/06/22 08:30:26;;;;;;;;;;;;;;;;;;5091010;28;19935;-69
2021/06/22 08:32:53;;;;;;;;;;;;;;;;;;5091463;28;19924;-70
2021/06/22 08:35:20;;;;;;;;;;;;;;;;;;5091324;28;19948;-71
2021/06/22 08:37:47;;;;;;;;;;;;;;;;;;5091543;28;20362;-69
2021/06/22 08:40:14;;;;;;;;;;;;;;;;;;5091115;28;19928;-70
2021/06/22 08:42:41;;;;;;;;;;;;;;;;;;5091264;28;19924;-72
2021/06/22 08:45:08;;;;;;;;;;;;;;;;;;5091541;28;19981;-71
2021/06/22 08:47:35;;;;;;;;;;;;;;;;;;5091327;28;20153;-72
2021/06/22 08:50:02;;;;;;;;;;;;;;;;;;5092438;28;19931;-71
2021/06/22 08:52:30;;;;;;;;;;;;;;;;;;5102187;28;20309;-71
2021/06/22 08:54:57;;;;;;;;;;;;;;;;;;5093587;28;19931;-71
2021/06/22 08:57:26;;;;;;;;;;;;;;;;;;5090804;28;19934;-71
2021/06/22 08:59:53;;;;;;;;;;;;;;;;;;5091386;28;20046;-69
2021/06/22 09:02:24;;;;;;;;;;;;;;;;;;5090906;28;19978;-71
2021/06/22 09:04:51;;;;;;;;;;;;;;;;;;5091225;28;19936;-71
2021/06/22 09:07:19;;;;;;;;;;;;;;;;;;5091289;28;19924;-69
2021/06/22 09:09:46;;;;;;;;;;;;;;;;;;5090726;28;19993;-71
2021/06/22 09:12:13;;;;;;;;;;;;;;;;;;5091286;28;19928;-71
2021/06/22 09:14:40;;;;;;;;;;;;;;;;;;5091263;28;20306;-68
2021/06/22 09:17:07;;;;;;;;;;;;;;;;;;5092914;28;20380;-69
2021/06/22 09:19:34;;;;;;;;;;;;;;;;;;5091740;28;20019;-71
2021/06/22 09:22:01;;;;;;;;;;;;;;;;;;5092013;28;19931;-71
2021/06/22 09:26:59;;;;;;;;;;;;;;;;;;5113592;28;19924;-64
2021/06/22 09:29:26;;;;;;;;;;;;;;;;;;5114681;28;20383;-63
2021/06/22 09:31:54;;;;;;;;;;;;;;;;;;5116095;28;19927;-63
2021/06/22 09:34:21;;;;;;;;;;;;;;;;;;5116106;28;19924;-63
2021/06/22 09:36:51;;;;;;;;;;;;;;;;;;5115146;28;19930;-63
2021/06/22 09:39:18;;;;;;;;;;;;;;;;;;5115114;28;19984;-63
2021/06/22 09:41:45;;;;;;;;;;;;;;;;;;5115330;28;19924;-63
2021/06/22 09:44:12;;;;;;;;;;;;;;;;;;5115150;28;19962;-63
2021/06/22 09:46:39;;;;;;;;;;;;;;;;;;5114658;28;19931;-64
2021/06/22 09:49:06;;;;;;;;;;;;;;;;;;5115321;28;20275;-63
2021/06/22 09:51:35;;;;;;;;;;;;;;;;;;5114350;28;20194;-63
2021/06/22 09:54:02;;;;;;;;;;;;;;;;;;5114737;28;19924;-64
2021/06/22 09:56:29;;;;;;;;;;;;;;;;;;5114793;28;19930;-64
2021/06/22 09:58:56;;;;;;;;;;;;;;;;;;5114848;28;19924;-64
2021/06/22 10:01:23;;;;;;;;;;;;;;;;;;5114774;28;20348;-63
2021/06/22 10:03:50;;;;;;;;;;;;;;;;;;5114552;28;20026;-63
2021/06/22 10:06:17;;;;;;;;;;;;;;;;;;5114903;28;20438;-64
2021/06/22 10:08:44;;;;;;;;;;;;;;;;;;5114482;28;19931;-64
2021/06/22 10:11:11;;;;;;;;;;;;;;;;;;5114140;28;20082;-63
2021/06/22 10:13:38;;;;;;;;;;;;;;;;;;5114764;28;19931;-63
2021/06/22 10:16:05;;;;;;;;;;;;;;;;;;5115691;28;19925;-63
2021/06/22 10:18:32;;;;;;;;;;;;;;;;;;5115720;28;19924;-63
2021/06/22 10:20:59;;;;;;;;;;;;;;;;;;5115076;28;19923;-64
2021/06/22 10:23:26;;;;;;;;;;;;;;;;;;5114476;28;19927;-63
2021/06/22 10:25:53;;;;;;;;;;;;;;;;;;5115095;28;19924;-64
2021/06/22 10:28:21;;;;;;;;;;;;;;;;;;5115559;28;19924;-63
2021/06/22 10:30:48;;;;;;;;;;;;;;;;;;5114906;28;20528;-63
2021/06/22 10:33:14;;;;;;;;;;;;;;;;;;5114709;28;19934;-63
2021/06/22 10:35:41;;;;;;;;;;;;;;;;;;5114051;28;19924;-65
2021/06/22 10:38:10;;;;;;;;;;;;;;;;;;5113817;28;20387;-63
2021/06/22 10:40:37;;;;;;;;;;;;;;;;;;5113768;28;19927;-64
2021/06/22 10:43:05;;;;;;;;;;;;;;;;;;5113651;28;19928;-63
2021/06/22 10:45:32;;;;;;;;;;;;;;;;;;5113766;28;19924;-64
2021/06/22 10:48:00;;;;;;;;;;;;;;;;;;5114182;28;19923;-63
2021/06/22 10:50:30;;;;;;;;;;;;;;;;;;5113128;28;19923;-62
2021/06/22 10:52:57;;;;;;;;;;;;;;;;;;5113901;28;19924;-63
2021/06/22 10:55:24;;;;;;;;;;;;;;;;;;5113391;28;19928;-64
2021/06/22 10:57:51;;;;;;;;;;;;;;;;;;5113371;28;19924;-64
2021/06/22 11:00:18;;;;;;;;;;;;;;;;;;5112754;28;20314;-64
2021/06/22 11:02:45;;;;;;;;;;;;;;;;;;5113890;28;19931;-64
2021/06/22 11:05:13;;;;;;;;;;;;;;;;;;5113547;28;19923;-63
2021/06/22 11:07:40;;;;;;;;;;;;;;;;;;5104202;28;19928;-63
2021/06/22 11:10:07;;;;;;;;;;;;;;;;;;5093096;28;19924;-64
2021/06/22 11:12:33;;;;;;;;;;;;;;;;;;5092584;28;19924;-64
2021/06/22 11:15:01;;;;;;;;;;;;;;;;;;5092704;28;20199;-63
2021/06/22 11:17:28;;;;;;;;;;;;;;;;;;5092526;28;19930;-64
2021/06/22 11:19:55;;;;;;;;;;;;;;;;;;5092340;28;19932;-63
2021/06/22 11:22:22;;;;;;;;;;;;;;;;;;5092531;28;20302;-64
2021/06/22 11:24:49;;;;;;;;;;;;;;;;;;5100322;28;20014;-64
2021/06/22 11:27:16;;;;;;;;;;;;;;;;;;5112628;28;20327;-62
2021/06/22 11:29:43;;;;;;;;;;;;;;;;;;5112776;28;19984;-64
2021/06/22 11:32:10;;;;;;;;;;;;;;;;;;5113711;28;20014;-62
2021/06/22 11:34:37;;;;;;;;;;;;;;;;;;5113798;28;20294;-65
2021/06/22 11:37:04;;;;;;;;;;;;;;;;;;5114187;28;19932;-63
2021/06/22 11:39:31;;;;;;;;;;;;;;;;;;5114000;28;19963;-64
2021/06/22 11:41:58;;;;;;;;;;;;;;;;;;5113665;28;19927;-63
2021/06/22 11:44:25;;;;;;;;;;;;;;;;;;5113012;28;19985;-64
2021/06/22 11:46:53;;;;;;;;;;;;;;;;;;5112052;28;20306;-65
2021/06/22 11:49:20;;;;;;;;;;;;;;;;;;5112510;28;19927;-64
2021/06/22 11:51:47;;;;;;;;;;;;;;;;;;5112321;28;19949;-63
2021/06/22 11:54:14;;;;;;;;;;;;;;;;;;5112394;28;20233;-64
2021/06/22 11:56:41;;;;;;;;;;;;;;;;;;5112235;28;20007;-64
2021/06/22 11:59:08;;;;;;;;;;;;;;;;;;5111812;28;19924;-62
2021/06/22 12:01:35;;;;;;;;;;;;;;;;;;5112330;28;20413;-63
2021/06/22 12:04:04;;;;;;;;;;;;;;;;;;5112091;28;19969;-63
2021/06/22 12:06:31;;;;;;;;;;;;;;;;;;5112123;28;19924;-63
2021/06/22 12:08:58;;;;;;;;;;;;;;;;;;5091623;28;19924;-63
2021/06/22 12:11:25;;;;;;;;;;;;;;;;;;5091609;28;20005;-62
2021/06/22 12:13:53;;;;;;;;;;;;;;;;;;5091820;28;20015;-63
2021/06/22 12:16:20;;;;;;;;;;;;;;;;;;5091931;28;19924;-63
2021/06/22 12:18:47;;;;;;;;;;;;;;;;;;5091543;28;20340;-62
2021/06/22 12:21:14;;;;;;;;;;;;;;;;;;5091522;28;19947;-63
2021/06/22 12:23:42;;;;;;;;;;;;;;;;;;5092098;28;20124;-63
2021/06/22 12:26:09;;;;;;;;;;;;;;;;;;5110864;28;19932;-63
2021/06/22 12:28:36;;;;;;;;;;;;;;;;;;5111770;28;19931;-63
2021/06/22 12:31:03;;;;;;;;;;;;;;;;;;5112067;28;20307;-63
2021/06/22 12:33:30;;;;;;;;;;;;;;;;;;5112235;28;20350;-62
2021/06/22 12:35:57;;;;;;;;;;;;;;;;;;5111909;28;20034;-62
2021/06/22 12:38:24;;;;;;;;;;;;;;;;;;5112130;28;20117;-62
2021/06/22 12:40:51;;;;;;;;;;;;;;;;;;5111773;28;19997;-63
2021/06/22 12:43:18;;;;;;;;;;;;;;;;;;5111893;28;20507;-63
2021/06/22 12:45:46;;;;;;;;;;;;;;;;;;5112394;28;19928;-63
2021/06/22 12:48:13;;;;;;;;;;;;;;;;;;5112168;28;20280;-64
2021/06/22 12:50:40;;;;;;;;;;;;;;;;;;5111310;28;19959;-63
2021/06/22 12:53:07;;;;;;;;;;;;;;;;;;5111591;28;19976;-63
2021/06/22 12:55:39;;;;;;;;;;;;;;;;;;5111953;28;20307;-64
2021/06/22 12:58:06;;;;;;;;;;;;;;;;;;5114149;28;20022;-64
2021/06/22 13:00:33;;;;;;;;;;;;;;;;;;5115521;28;19971;-64
2021/06/22 13:03:00;;;;;;;;;;;;;;;;;;5115631;28;20014;-64
2021/06/22 13:05:27;;;;;;;;;;;;;;;;;;5115832;28;19975;-63
2021/06/22 13:07:54;;;;;;;;;;;;;;;;;;5104404;28;20014;-64
2021/06/22 13:10:21;;;;;;;;;;;;;;;;;;5095590;28;20358;-62
2021/06/22 13:12:48;;;;;;;;;;;;;;;;;;5095738;28;20019;-63
2021/06/22 13:15:15;;;;;;;;;;;;;;;;;;5094905;28;20284;-63
2021/06/22 13:17:42;;;;;;;;;;;;;;;;;;5094730;28;20022;-64
2021/06/22 13:20:09;;;;;;;;;;;;;;;;;;5095655;28;20014;-62
2021/06/22 13:22:36;;;;;;;;;;;;;;;;;;5095448;28;19971;-64
2021/06/22 13:25:03;;;;;;;;;;;;;;;;;;5104863;28;19971;-63
2021/06/22 13:27:31;;;;;;;;;;;;;;;;;;5115866;28;20354;-64
2021/06/22 13:29:58;;;;;;;;;;;;;;;;;;5115006;28;20010;-63
2021/06/22 13:32:25;;;;;;;;;;;;;;;;;;5114903;28;19923;-62
2021/06/22 13:34:52;;;;;;;;;;;;;;;;;;5115239;28;19946;-63
2021/06/22 13:37:19;;;;;;;;;;;;;;;;;;5115314;28;20348;-62
2021/06/22 13:39:46;;;;;;;;;;;;;;;;;;5115038;28;20018;-64
2021/06/22 13:42:13;;;;;;;;;;;;;;;;;;5114783;28;19970;-63
2021/06/22 13:44:41;;;;;;;;;;;;;;;;;;5114871;28;20434;-65
2021/06/22 13:47:08;;;;;;;;;;;;;;;;;;5114470;28;19924;-64
2021/06/22 13:49:35;;;;;;;;;;;;;;;;;;5114474;28;19943;-63
2021/06/22 13:52:02;;;;;;;;;;;;;;;;;;5115028;28;19924;-63
2021/06/22 13:54:29;;;;;;;;;;;;;;;;;;5114563;28;19963;-64
2021/06/22 13:56:56;;;;;;;;;;;;;;;;;;5115242;28;19949;-64
2021/06/22 13:59:23;;;;;;;;;;;;;;;;;;5114320;28;19924;-63
2021/06/22 14:01:50;;;;;;;;;;;;;;;;;;5114897;28;19927;-63
2021/06/22 14:04:17;;;;;;;;;;;;;;;;;;5114565;28;20348;-63
2021/06/22 14:06:44;;;;;;;;;;;;;;;;;;5113162;28;19932;-63
2021/06/22 14:09:11;;;;;;;;;;;;;;;;;;5092987;28;20299;-63
2021/06/22 14:11:38;;;;;;;;;;;;;;;;;;5094228;28;19929;-62
2021/06/22 14:14:05;;;;;;;;;;;;;;;;;;5094110;28;19928;-63
2021/06/22 14:16:33;;;;;;;;;;;;;;;;;;5094232;28;20102;-63
2021/06/22 14:19:01;;;;;;;;;;;;;;;;;;5094027;28;20342;-64
2021/06/22 14:21:29;;;;;;;;;;;;;;;;;;5093632;28;20304;-62
2021/06/22 14:23:56;;;;;;;;;;;;;;;;;;5094209;28;20380;-63
2021/06/22 14:26:23;;;;;;;;;;;;;;;;;;5113840;28;20076;-63
2021/06/22 14:28:50;;;;;;;;;;;;;;;;;;5113866;28;19928;-64
2021/06/22 14:31:17;;;;;;;;;;;;;;;;;;5113891;28;19946;-65
2021/06/22 14:33:44;;;;;;;;;;;;;;;;;;5113663;28;19924;-64
2021/06/22 14:36:11;;;;;;;;;;;;;;;;;;5114009;28;20022;-63
2021/06/22 14:38:38;;;;;;;;;;;;;;;;;;5113806;28;19930;-63
2021/06/22 14:41:05;;;;;;;;;;;;;;;;;;5113512;28;19923;-62
2021/06/22 14:43:32;;;;;;;;;;;;;;;;;;5113820;28;20309;-63
2021/06/22 14:45:59;;;;;;;;;;;;;;;;;;5113707;28;20019;-63
2021/06/22 14:48:27;;;;;;;;;;;;;;;;;;5113831;28;20285;-64
2021/06/22 14:50:54;;;;;;;;;;;;;;;;;;5113640;28;19923;-64
2021/06/22 14:53:21;;;;;;;;;;;;;;;;;;5113914;28;20306;-63
2021/06/22 14:55:48;;;;;;;;;;;;;;;;;;5113153;28;20003;-62
2021/06/22 14:58:15;;;;;;;;;;;;;;;;;;5113796;28;19923;-64
2021/06/22 15:00:42;;;;;;;;;;;;;;;;;;5113409;28;20359;-64
2021/06/22 15:03:09;;;;;;;;;;;;;;;;;;5114111;28;19962;-63
2021/06/22 15:05:36;;;;;;;;;;;;;;;;;;5113570;28;20302;-66
2021/06/22 15:08:03;;;;;;;;;;;;;;;;;;5101274;28;19936;-63
2021/06/22 15:10:30;;;;;;;;;;;;;;;;;;5092719;28;20334;-64
2021/06/22 15:12:57;;;;;;;;;;;;;;;;;;5092887;28;19931;-64
2021/06/22 15:15:24;;;;;;;;;;;;;;;;;;5092980;28;19978;-63
2021/06/22 15:17:56;;;;;;;;;;;;;;;;;;5092916;28;20019;-64
2021/06/22 15:20:23;;;;;;;;;;;;;;;;;;5092623;28;19924;-64
2021/06/22 15:22:50;;;;;;;;;;;;;;;;;;5092362;28;19930;-62
2021/06/22 15:25:17;;;;;;;;;;;;;;;;;;5105159;28;20228;-63
2021/06/22 15:27:44;;;;;;;;;;;;;;;;;;5113002;28;19970;-63
2021/06/22 15:30:11;;;;;;;;;;;;;;;;;;5112740;28;20010;-64
2021/06/22 15:32:38;;;;;;;;;;;;;;;;;;5112930;28;20002;-62
2021/06/22 15:35:05;;;;;;;;;;;;;;;;;;5112978;28;19984;-64
2021/06/22 15:37:32;;;;;;;;;;;;;;;;;;5112832;28;20231;-63
2021/06/22 15:40:01;;;;;;;;;;;;;;;;;;5112560;28;19924;-63
2021/06/22 15:42:28;;;;;;;;;;;;;;;;;;5113066;28;19928;-62
2021/06/22 15:44:55;;;;;;;;;;;;;;;;;;5113656;28;19945;-63
2021/06/22 15:47:22;;;;;;;;;;;;;;;;;;5113620;28;20415;-63
2021/06/22 15:49:49;;;;;;;;;;;;;;;;;;5112412;28;20016;-62
2021/06/22 15:52:16;;;;;;;;;;;;;;;;;;5112613;28;19924;-63
2021/06/22 15:54:45;;;;;;;;;;;;;;;;;;5112720;28;20023;-63
2021/06/22 15:57:12;;;;;;;;;;;;;;;;;;5112967;28;20023;-63
2021/06/22 15:59:38;;;;;;;;;;;;;;;;;;5112703;28;19930;-63
2021/06/22 16:02:05;;;;;;;;;;;;;;;;;;5112255;28;19931;-63
2021/06/22 16:04:32;;;;;;;;;;;;;;;;;;5111878;28;19924;-62
2021/06/22 16:06:59;;;;;;;;;;;;;;;;;;5108690;28;19924;-62
2021/06/22 16:09:26;;;;;;;;;;;;;;;;;;5091614;28;19934;-62
2021/06/22 16:11:53;;;;;;;;;;;;;;;;;;5091670;28;20019;-62
2021/06/22 16:14:20;;;;;;;;;;;;;;;;;;5091676;28;19924;-63
2021/06/22 16:16:48;;;;;;;;;;;;;;;;;;5091502;28;19982;-63
2021/06/22 16:19:15;;;;;;;;;;;;;;;;;;5091496;28;20022;-63
2021/06/22 16:21:42;;;;;;;;;;;;;;;;;;5091643;28;19946;-63
2021/06/22 16:24:09;;;;;;;;;;;;;;;;;;5093585;28;19978;-63
2021/06/22 16:26:36;;;;;;;;;;;;;;;;;;5111903;28;20019;-63
2021/06/22 16:29:03;;;;;;;;;;;;;;;;;;5111597;28;19980;-63
2021/06/22 16:31:30;;;;;;;;;;;;;;;;;;5111471;28;19930;-62
2021/06/22 16:33:59;;;;;;;;;;;;;;;;;;5115950;28;19977;-63
2021/06/22 16:36:26;;;;;;;;;;;;;;;;;;5115831;28;19928;-62
2021/06/22 16:38:53;;;;;;;;;;;;;;;;;;5116145;28;19924;-63
2021/06/22 16:41:20;;;;;;;;;;;;;;;;;;5115497;28;20394;-63
2021/06/22 16:43:47;;;;;;;;;;;;;;;;;;5115855;28;19924;-63
2021/06/22 16:46:14;;;;;;;;;;;;;;;;;;5115375;28;19928;-63